Cumming, IA (50061)

3:17 AM CDT on August 29, 2015 (GMT -0500)
Norwalk, IA (2mi SW) | | Change Station
CLOSE
Current Station
Personal Weather Station
Location: Norwalk, IA
Elevation: 919 ft
Nearby Weather Stations

Elev 919 ft 41.46 °N, 93.71 °W | Updated 22 seconds ago

Fog
Fog
64.4 °F
Feels Like 64.4 °F
N
3.1
Wind Variable Wind from ENE
Gusts 7.2 mph

Today
High -- | Low -- °F
--% Chance of Precip.
Yesterday
High -- | Low -- °F
Precip. -- in
6:37 AM 7:53 PM
Full, 100% visible
Pressure 29.90 in
Visibility 0.5 miles
Clouds
Dew Point 64 °F
Humidity 99%
Rainfall 0.07 in
Snow Depth Not available.
UV Not available.
Pollen 1.10 out of 12
Air Quality Not available.
Flu Activity Not available.
METAR KDSM 290754Z 31010KT 1/2SM -DZ BR VV002 19/18 A2992 RMK AO2 SFC VIS 3/4 DZB52 SLP125 P0000 T01890178 RVRNO
Pressure 29.90 in
Visibility 0.5 miles
Clouds
Dew Point 64 °F
Humidity 99%
Rainfall 0.07 in
Snow Depth Not available.
UV Not available.
Pollen 1.10 out of 12
Air Quality Not available.
Flu Activity Not available.
METAR KDSM 290754Z 31010KT 1/2SM -DZ BR VV002 19/18 A2992 RMK AO2 SFC VIS 3/4 DZB52 SLP125 P0000 T01890178 RVRNO

10-Day Weather Forecast

×

Almanac

Astronomy

Aug. 29, 2015 Rise Set
Actual Time
Civil Twilight
Nautical Twilight
Astronomical Twilight
Moon
Length of Visible Light
Length of Day
Tomorrow will be .
, % of the Moon is Illuminated

Today's Extremes

State Highs State Lows

Community

WunderPhotos

Upload Photos

1,850,634 photos uploaded!

WunderBlogs® & News

Nearby

Air Quality

  Air Quality AQ Index Pollutant
Not available.

Snow Depth

Station Depth Elevation

Earthquake Activity

City Distance Mag. Time & Date
Minimum magnitude displayed is 2.5.

Coastal Water Temperatures

Place Temperature

Stations

Nearby Weather Stations

Station Location Temp. Windchill Dew Point Humidity Wind Precip. Elev Updated Type